Time;durP1;ratioP1;P1;durP2;ratioP2;P2;SDS_P1;SDS_P2;PMS_P1;PMS_P2;Temp;Humidity;BMP_temperature;BMP_pressure;BME280_temperature;BME280_humidity;BME280_pressure;Samples;Min_cycle;Max_cycle;Signal;HPM_P1;HPM_P2
2023/04/18 00:00:22;;;;;;;16.60;11.68;;;9.10;99.90;;;;;;4905927;29;20060;-73
2023/04/18 05:01:41;;;;;;;16.10;10.63;;;8.30;99.90;;;;;;5799495;23;20047;-72
2023/04/18 05:04:07;;;;;;;17.65;11.40;;;8.30;99.90;;;;;;4962801;29;20039;-71
2023/04/18 05:06:33;;;;;;;14.90;10.80;;;8.30;99.90;;;;;;4960784;29;20042;-71
2023/04/18 05:08:59;;;;;;;16.15;11.10;;;8.30;99.90;;;;;;4961785;29;20035;-72
2023/04/18 05:11:26;;;;;;;19.70;12.43;;;8.20;99.90;;;;;;4956221;29;20033;-72
2023/04/18 05:13:51;;;;;;;16.00;11.30;;;8.20;99.90;;;;;;4965079;29;20054;-78
2023/04/18 05:16:20;;;;;;;17.85;11.60;;;8.20;99.90;;;;;;4962046;29;20240;-75
2023/04/18 05:18:46;;;;;;;17.50;12.15;;;8.20;99.90;;;;;;4958707;29;20034;-74
2023/04/18 05:21:14;;;;;;;17.33;12.35;;;8.20;99.90;;;;;;4960376;29;20039;-74
2023/04/18 05:23:40;;;;;;;;;;;8.30;99.90;;;;;;4962695;29;20034;-73
2023/04/18 05:26:06;;;;;;;18.75;12.15;;;8.30;99.90;;;;;;4953719;29;19906;-74
2023/04/18 05:28:31;;;;;;;19.50;12.50;;;8.30;99.90;;;;;;4963260;29;20315;-74
2023/04/18 05:31:00;;;;;;;19.15;12.98;;;8.40;99.90;;;;;;4957187;29;20165;-73
2023/04/18 05:33:31;;;;;;;19.17;12.88;;;8.50;99.90;;;;;;4963106;29;20312;-73
2023/04/18 05:35:57;;;;;;;21.35;12.48;;;8.50;99.90;;;;;;4957217;29;20035;-73
2023/04/18 05:38:23;;;;;;;19.58;12.93;;;8.50;99.90;;;;;;4961117;29;20081;-74
2023/04/18 05:40:50;;;;;;;16.90;11.77;;;8.50;99.90;;;;;;4965365;29;20031;-74
2023/04/18 05:43:19;;;;;;;17.35;12.02;;;8.60;99.90;;;;;;4958869;29;20156;-73
2023/04/18 05:45:47;;;;;;;18.02;11.98;;;8.60;99.90;;;;;;4953308;29;20039;-73
2023/04/18 05:48:13;;;;;;;16.92;12.57;;;8.60;99.90;;;;;;4958408;28;20257;-74
2023/04/18 05:50:39;;;;;;;19.20;11.98;;;8.60;99.90;;;;;;4962026;29;20038;-75
2023/04/18 05:53:05;;;;;;;17.35;11.90;;;8.60;99.90;;;;;;4958969;29;20042;-74
2023/04/18 05:55:31;;;;;;;16.45;11.57;;;8.60;99.90;;;;;;4966811;29;20201;-74
2023/04/18 05:57:56;;;;;;;17.70;12.02;;;8.70;99.90;;;;;;4959236;29;20043;-74
2023/04/18 06:00:23;;;;;;;16.98;11.57;;;8.70;99.90;;;;;;4950987;29;20035;-74
2023/04/18 06:02:49;;;;;;;20.00;12.38;;;8.80;99.90;;;;;;4972508;28;20273;-75
2023/04/18 06:05:15;;;;;;;19.98;12.43;;;8.80;99.90;;;;;;4973155;28;20019;-73
2023/04/18 06:07:41;;;;;;;19.98;12.38;;;8.90;99.90;;;;;;4977617;28;20216;-74
2023/04/18 06:10:09;;;;;;;20.52;11.35;;;8.90;99.90;;;;;;4975632;28;20034;-74
2023/04/18 06:12:38;;;;;;;16.92;11.15;;;9.00;99.90;;;;;;4971644;28;20027;-73
2023/04/18 06:15:05;;;;;;;20.05;11.68;;;9.00;99.90;;;;;;4984352;28;20042;-73
2023/04/18 06:17:31;;;;;;;19.77;12.70;;;9.10;99.90;;;;;;4984053;28;20093;-73
2023/04/18 06:19:57;;;;;;;17.52;11.30;;;9.10;99.90;;;;;;4976684;28;20042;-74
2023/04/18 06:22:22;;;;;;;17.75;11.90;;;9.20;99.90;;;;;;4979387;28;20281;-73
2023/04/18 06:24:48;;;;;;;18.85;11.77;;;9.10;99.90;;;;;;4979508;28;20035;-74
2023/04/18 06:27:14;;;;;;;17.15;11.90;;;9.10;99.90;;;;;;4977096;28;20070;-72
2023/04/18 06:29:54;;;;;;;19.67;12.35;;;9.00;99.90;;;;;;4984023;28;20034;-71
2023/04/18 06:32:20;;;;;;;19.75;12.32;;;9.10;99.90;;;;;;4981104;28;20031;-71
2023/04/18 06:34:46;;;;;;;17.17;11.38;;;9.10;99.90;;;;;;4983808;28;20035;-73
2023/04/18 06:37:12;;;;;;;18.52;11.65;;;9.20;99.90;;;;;;4983013;28;20029;-72
2023/04/18 06:39:37;;;;;;;15.85;11.60;;;9.30;99.90;;;;;;4964366;28;20019;-73
2023/04/18 06:42:03;;;;;;;19.67;12.32;;;9.40;99.90;;;;;;4975725;28;20037;-73
2023/04/18 06:44:31;;;;;;;18.27;11.35;;;9.30;99.90;;;;;;4983183;28;20022;-74
2023/04/18 06:46:57;;;;;;;18.90;11.38;;;9.40;99.90;;;;;;4983537;28;20042;-74
2023/04/18 06:49:25;;;;;;;17.52;11.02;;;9.40;99.90;;;;;;4964274;28;20106;-75
2023/04/18 06:51:51;;;;;;;21.10;11.90;;;9.40;99.90;;;;;;4974965;28;20035;-73
2023/04/18 06:54:17;;;;;;;17.15;10.88;;;9.40;99.90;;;;;;4983469;28;20037;-75
2023/04/18 06:56:45;;;;;;;18.73;11.18;;;9.40;99.90;;;;;;4983795;28;20220;-74
2023/04/18 06:59:11;;;;;;;15.55;11.30;;;9.50;99.90;;;;;;4970090;28;20105;-75
2023/04/18 07:01:43;;;;;;;16.20;11.05;;;9.60;99.90;;;;;;4982482;28;20038;-72
2023/04/18 07:04:14;;;;;;;15.10;10.93;;;9.60;99.90;;;;;;4983704;28;20090;-73
2023/04/18 07:06:41;;;;;;;17.63;10.52;;;9.60;99.90;;;;;;4979248;28;20044;-74
2023/04/18 07:09:07;;;;;;;17.00;11.07;;;9.60;99.90;;;;;;4970996;28;20097;-73
2023/04/18 07:11:32;;;;;;;18.88;12.00;;;9.60;99.90;;;;;;4982888;28;20038;-74
2023/04/18 07:13:58;;;;;;;17.45;10.57;;;9.50;99.90;;;;;;4979430;28;20027;-73
2023/04/18 07:16:24;;;;;;;15.52;11.32;;;9.50;99.90;;;;;;4986360;28;20327;-74
2023/04/18 07:18:50;;;;;;;17.25;11.25;;;9.60;99.90;;;;;;4974279;28;20038;-74
2023/04/18 07:21:17;;;;;;;16.48;11.00;;;9.80;99.90;;;;;;4985522;28;20026;-74
2023/04/18 07:23:43;;;;;;;18.15;10.88;;;9.80;99.90;;;;;;4984473;28;20081;-76
2023/04/18 07:26:10;;;;;;;15.88;10.32;;;9.90;99.90;;;;;;4985289;28;20022;-74
2023/04/18 07:28:35;;;;;;;20.38;10.65;;;10.00;99.90;;;;;;4976126;28;20038;-72
2023/04/18 07:31:02;;;;;;;15.63;10.52;;;9.90;99.90;;;;;;4982100;28;20307;-74
2023/04/18 07:33:30;;;;;;;16.33;11.65;;;10.00;99.90;;;;;;4986615;28;20324;-74
2023/04/18 07:35:56;;;;;;;16.35;10.80;;;10.10;99.90;;;;;;4986736;28;20075;-73
2023/04/18 07:38:22;;;;;;;15.95;10.05;;;10.10;99.90;;;;;;4985055;28;20043;-73
2023/04/18 07:40:59;;;;;;;19.17;10.50;;;10.10;99.90;;;;;;4989740;28;20038;-72
2023/04/18 07:43:25;;;;;;;14.50;10.60;;;10.20;99.90;;;;;;4977616;28;20343;-73
2023/04/18 07:45:51;;;;;;;15.43;10.35;;;10.20;99.90;;;;;;4980453;28;20046;-74
2023/04/18 07:48:17;;;;;;;14.57;10.05;;;10.20;99.90;;;;;;4966196;28;20027;-74
2023/04/18 07:50:43;;;;;;;16.10;10.80;;;10.20;99.90;;;;;;4966988;28;20035;-75
2023/04/18 07:53:09;;;;;;;16.73;11.02;;;10.30;99.90;;;;;;4967068;28;20118;-72
2023/04/18 07:55:37;;;;;;;15.50;10.15;;;10.40;99.90;;;;;;4966308;28;20071;-73
2023/04/18 07:58:03;;;;;;;14.18;10.18;;;10.50;99.90;;;;;;4974676;28;20027;-74
2023/04/18 08:00:31;;;;;;;14.95;10.23;;;10.70;99.90;;;;;;4971216;28;20081;-73
2023/04/18 08:02:57;;;;;;;13.77;9.95;;;10.80;99.90;;;;;;4984491;28;20113;-72
2023/04/18 08:05:23;;;;;;;15.57;10.45;;;11.00;99.90;;;;;;4985364;28;20038;-74
2023/04/18 08:07:49;;;;;;;15.13;9.73;;;11.20;99.90;;;;;;4985888;28;20034;-72
2023/04/18 08:10:18;;;;;;;13.43;9.38;;;11.30;99.90;;;;;;4985782;28;20022;-73
2023/04/18 08:12:44;;;;;;;14.95;10.18;;;11.40;99.90;;;;;;4986236;28;20034;-72
2023/04/18 08:15:10;;;;;;;16.15;10.10;;;11.70;99.90;;;;;;4989190;28;20376;-73
2023/04/18 08:17:37;;;;;;;14.15;10.38;;;11.80;99.90;;;;;;4985852;28;20031;-73
2023/04/18 08:20:06;;;;;;;16.25;9.85;;;11.90;99.90;;;;;;4986130;28;20043;-75
2023/04/18 08:22:32;;;;;;;;;;;12.00;99.90;;;;;;4982375;28;20031;-74
2023/04/18 08:24:59;;;;;;;15.23;9.85;;;11.90;99.90;;;;;;4985186;28;19920;-74
2023/04/18 08:27:25;;;;;;;13.17;9.73;;;11.90;99.90;;;;;;4984690;28;20030;-73
2023/04/18 08:29:51;;;;;;;13.00;9.30;;;11.90;99.90;;;;;;4985126;28;20442;-74
2023/04/18 08:32:17;;;;;;;13.48;10.02;;;11.90;99.90;;;;;;4987416;28;20031;-74
2023/04/18 08:34:42;;;;;;;15.93;9.85;;;11.90;99.90;;;;;;4991656;28;20413;-73
2023/04/18 08:37:09;;;;;;;13.23;10.02;;;12.00;99.90;;;;;;4985028;28;20041;-74
2023/04/18 08:39:34;;;;;;;14.75;9.90;;;12.10;99.90;;;;;;4984422;28;20065;-74
2023/04/18 08:42:00;;;;;;;15.05;9.73;;;12.10;99.90;;;;;;4985206;28;20409;-73
2023/04/18 08:44:29;;;;;;;14.10;9.32;;;12.40;99.90;;;;;;4984556;28;20093;-74
2023/04/18 08:46:56;;;;;;;15.32;10.18;;;12.60;99.90;;;;;;4980512;28;20277;-74
2023/04/18 08:49:23;;;;;;;14.52;9.90;;;12.80;99.90;;;;;;4986021;28;20036;-74
2023/04/18 08:51:50;;;;;;;14.27;10.40;;;13.10;99.90;;;;;;4980138;28;20126;-74
2023/04/18 08:54:18;;;;;;;11.02;8.57;;;13.20;99.90;;;;;;4965765;28;20031;-75
2023/04/18 08:56:44;;;;;;;15.52;9.40;;;13.50;99.90;;;;;;4965490;28;20027;-73
2023/04/18 08:59:10;;;;;;;13.02;9.18;;;14.00;99.90;;;;;;4968887;28;20041;-73
2023/04/18 09:02:03;;;;;;;13.50;9.35;;;14.50;99.90;;;;;;4983999;28;20026;-74
2023/04/18 09:04:44;;;;;;;12.32;9.10;;;14.70;99.40;;;;;;4980708;28;20057;-75
2023/04/18 09:07:11;;;;;;;14.73;9.10;;;14.60;98.90;;;;;;4984439;28;20117;-74
2023/04/18 09:09:52;;;;;;;19.83;10.87;;;14.40;98.90;;;;;;4992306;28;20089;-76
2023/04/18 09:12:24;;;;;;;13.18;9.07;;;13.90;99.50;;;;;;4970152;28;20261;-76
2023/04/18 09:15:19;;;;;;;12.13;8.93;;;13.60;99.90;;;;;;4983655;28;20216;-74
2023/04/18 09:17:52;;;;;;;14.55;10.02;;;13.40;99.90;;;;;;4974879;28;20324;-75
2023/04/18 09:20:36;;;;;;;14.43;10.00;;;13.10;99.90;;;;;;4974831;28;20035;-74
2023/04/18 09:23:13;;;;;;;15.52;10.18;;;12.80;99.90;;;;;;4984799;28;20058;-76
2023/04/18 09:25:45;;;;;;;15.85;9.85;;;12.70;99.90;;;;;;4974652;28;20111;-76
2023/04/18 09:28:27;;;;;;;13.90;10.05;;;12.50;99.90;;;;;;4986593;28;20031;-73
2023/04/18 09:30:58;;;;;;;16.52;10.90;;;12.40;99.90;;;;;;4984122;28;20083;-74
2023/04/18 09:33:32;;;;;;;15.68;9.98;;;12.30;99.90;;;;;;4978546;28;20048;-75
2023/04/18 09:36:25;;;;;;;16.92;10.07;;;12.40;99.90;;;;;;4984335;28;20038;-75
2023/04/18 09:38:55;;;;;;;16.60;9.80;;;12.50;99.90;;;;;;4983006;28;20051;-74
2023/04/18 09:41:22;;;;;;;16.10;10.27;;;12.60;99.90;;;;;;4983726;28;20218;-74
2023/04/18 09:43:48;;;;;;;14.95;10.48;;;12.80;99.90;;;;;;4983638;28;20079;-74
2023/04/18 09:46:16;;;;;;;14.85;10.05;;;13.00;99.90;;;;;;4983965;28;20023;-76
2023/04/18 09:48:42;;;;;;;16.27;9.90;;;13.10;99.90;;;;;;4970008;28;20363;-76
2023/04/18 09:51:14;;;;;;;13.73;9.85;;;13.10;99.90;;;;;;4980368;28;20046;-75
2023/04/18 09:53:46;;;;;;;13.60;9.25;;;13.40;99.90;;;;;;4983232;28;20304;-75
2023/04/18 09:56:18;;;;;;;14.57;9.52;;;13.60;99.90;;;;;;4982545;28;20031;-75
2023/04/18 09:58:48;;;;;;;13.80;9.75;;;13.70;99.90;;;;;;4969841;28;20332;-74
2023/04/18 10:01:14;;;;;;;14.57;8.93;;;14.00;99.80;;;;;;4983982;28;20039;-75
2023/04/18 10:03:50;;;;;;;12.40;8.90;;;14.30;99.40;;;;;;4983769;28;20035;-74
2023/04/18 10:06:16;;;;;;;13.65;9.57;;;14.60;98.60;;;;;;4983015;28;20042;-74
2023/04/18 10:08:47;;;;;;;13.07;8.93;;;14.90;98.00;;;;;;4983520;28;20057;-75
2023/04/18 10:11:14;;;;;;;11.43;8.77;;;15.10;97.70;;;;;;4982832;28;20057;-74
2023/04/18 10:13:46;;;;;;;12.23;8.55;;;15.00;97.50;;;;;;4977178;28;20029;-74
2023/04/18 10:16:13;;;;;;;11.50;7.88;;;14.70;97.60;;;;;;4964385;28;20365;-74
2023/04/18 10:18:41;;;;;;;13.65;8.40;;;14.70;97.50;;;;;;4981474;28;20332;-74
2023/04/18 10:21:08;;;;;;;13.18;8.80;;;14.60;98.20;;;;;;4979462;28;20023;-73
2023/04/18 10:23:35;;;;;;;14.73;8.93;;;14.80;98.70;;;;;;4980035;28;20026;-73
2023/04/18 10:26:09;;;;;;;10.25;8.00;;;15.10;98.00;;;;;;4976086;28;20042;-73
2023/04/18 10:29:00;;;;;;;10.38;7.40;;;15.50;97.10;;;;;;4982992;28;20072;-75
2023/04/18 10:31:27;;;;;;;11.18;8.10;;;16.00;96.00;;;;;;4976104;28;20109;-75
2023/04/18 10:33:56;;;;;;;10.80;7.80;;;16.00;95.50;;;;;;4983557;28;20320;-72
2023/04/18 10:36:22;;;;;;;10.70;7.72;;;15.90;95.60;;;;;;4982557;28;20082;-71
2023/04/18 10:39:12;;;;;;;9.32;7.30;;;16.30;95.10;;;;;;4983195;28;20248;-72
2023/04/18 10:41:47;;;;;;;10.77;7.13;;;16.30;94.90;;;;;;4983253;28;20027;-70
2023/04/18 10:44:23;;;;;;;8.48;6.82;;;16.40;94.40;;;;;;4983517;28;20198;-72
2023/04/18 10:46:49;;;;;;;10.48;7.28;;;16.30;94.60;;;;;;4981410;28;20035;-71
2023/04/18 10:49:23;;;;;;;8.25;6.50;;;16.40;94.20;;;;;;4988195;28;20097;-72
2023/04/18 10:52:00;;;;;;;10.85;6.85;;;16.50;94.20;;;;;;4979699;28;20043;-72
2023/04/18 10:55:03;;;;;;;12.05;6.85;;;16.70;93.70;;;;;;4982708;28;20038;-71
2023/04/18 10:58:00;;;;;;;;;;;16.70;93.60;;;;;;4986180;28;20058;-72
2023/04/18 11:00:29;;;;;;;8.02;6.10;;;16.70;94.10;;;;;;4969110;28;19912;-70
2023/04/18 11:03:04;;;;;;;10.75;6.03;;;16.60;93.60;;;;;;4982902;28;20039;-72
2023/04/18 11:05:30;;;;;;;10.93;6.55;;;16.50;94.10;;;;;;4982630;28;20049;-72
2023/04/18 11:07:58;;;;;;;8.70;6.07;;;16.80;93.40;;;;;;4986136;28;20070;-71
2023/04/18 11:10:28;;;;;;;9.63;6.07;;;16.80;93.40;;;;;;4987776;28;20053;-73
2023/04/18 11:12:54;;;;;;;8.88;5.22;;;16.80;93.20;;;;;;4988680;28;20038;-72
2023/04/18 11:15:22;;;;;;;9.52;5.95;;;16.40;93.90;;;;;;4988145;28;20019;-72
2023/04/18 11:18:06;;;;;;;9.98;5.75;;;16.20;94.10;;;;;;4974561;28;20052;-74
2023/04/18 11:20:44;;;;;;;7.60;5.78;;;16.20;94.00;;;;;;4970244;28;20247;-73
2023/04/18 11:23:23;;;;;;;9.30;6.15;;;16.10;94.00;;;;;;4982863;28;20057;-72
2023/04/18 11:25:55;;;;;;;27.38;7.07;;;15.50;94.90;;;;;;4975802;28;20062;-73
2023/04/18 11:28:23;;;;;;;12.88;5.20;;;15.60;95.40;;;;;;4982908;28;20043;-74
2023/04/18 11:30:49;;;;;;;;;;;15.80;95.10;;;;;;4978011;28;20035;-72
2023/04/18 11:33:15;;;;;;;8.75;5.63;;;15.90;94.50;;;;;;4978739;28;20186;-71
2023/04/18 11:35:45;;;;;;;11.65;5.78;;;15.80;94.90;;;;;;4980963;28;20034;-72
2023/04/18 11:38:14;;;;;;;11.32;5.60;;;15.80;94.90;;;;;;4979003;28;20035;-72
2023/04/18 11:40:48;;;;;;;10.63;5.30;;;15.70;94.90;;;;;;4982250;28;20030;-75
2023/04/18 11:43:20;;;;;;;8.50;5.05;;;15.50;95.40;;;;;;4980622;28;20305;-73
2023/04/18 11:45:57;;;;;;;9.90;5.82;;;15.50;95.60;;;;;;4973113;28;20027;-73
2023/04/18 11:48:23;;;;;;;6.63;4.70;;;15.50;95.40;;;;;;4969607;28;20043;-73
2023/04/18 11:50:49;;;;;;;6.95;4.82;;;15.40;95.70;;;;;;4980757;28;20242;-72
2023/04/18 11:53:34;;;;;;;7.55;4.78;;;15.10;95.80;;;;;;4971587;28;20043;-72
2023/04/18 11:56:02;;;;;;;7.93;5.53;;;15.10;96.20;;;;;;4969701;28;20054;-73
2023/04/18 11:58:32;;;;;;;7.03;4.85;;;15.00;96.10;;;;;;4978021;28;20046;-72
2023/04/18 12:01:17;;;;;;;7.05;5.07;;;14.90;96.50;;;;;;4979506;28;20050;-73
2023/04/18 12:03:58;;;;;;;7.65;4.85;;;15.10;96.40;;;;;;4981337;28;20074;-72
2023/04/18 12:06:23;;;;;;;7.70;4.93;;;15.30;96.10;;;;;;4986230;28;20026;-71
2023/04/18 12:08:56;;;;;;;6.78;4.28;;;15.40;96.10;;;;;;4985189;28;20206;-71
2023/04/18 12:11:22;;;;;;;6.93;5.07;;;15.50;95.80;;;;;;4977537;28;20061;-70
2023/04/18 12:13:47;;;;;;;8.07;5.38;;;15.50;95.40;;;;;;4985775;28;20217;-72
2023/04/18 12:16:13;;;;;;;8.00;5.43;;;15.40;96.00;;;;;;4986220;28;20034;-72
2023/04/18 12:18:40;;;;;;;7.18;4.72;;;15.30;96.70;;;;;;4978258;28;20042;-72
2023/04/18 12:21:06;;;;;;;8.05;5.05;;;15.30;95.50;;;;;;4985773;28;20026;-72
2023/04/18 12:23:34;;;;;;;7.40;4.88;;;15.40;95.20;;;;;;4985474;28;20034;-71
2023/04/18 12:26:02;;;;;;;8.25;4.75;;;15.40;95.40;;;;;;4975453;28;20039;-71
2023/04/18 12:28:29;;;;;;;7.65;4.72;;;15.30;95.30;;;;;;4985705;28;20094;-71
2023/04/18 12:30:55;;;;;;;8.43;4.85;;;15.50;95.50;;;;;;4986415;28;20034;-70
2023/04/18 12:33:21;;;;;;;6.80;4.47;;;15.80;94.80;;;;;;4985489;28;20200;-70
2023/04/18 12:35:47;;;;;;;6.88;4.07;;;16.10;94.10;;;;;;4984647;28;20043;-71
2023/04/18 12:38:12;;;;;;;7.00;4.35;;;16.60;93.80;;;;;;4986017;28;20056;-72
2023/04/18 12:40:39;;;;;;;7.63;4.38;;;16.70;93.10;;;;;;4984935;28;20049;-71
2023/04/18 12:43:06;;;;;;;6.80;4.38;;;16.80;93.10;;;;;;4985498;28;20045;-71
2023/04/18 12:45:35;;;;;;;5.75;4.10;;;16.80;92.90;;;;;;4985650;28;20316;-71
2023/04/18 12:48:01;;;;;;;6.95;4.30;;;16.70;93.10;;;;;;4985412;28;20046;-68
2023/04/18 12:50:26;;;;;;;5.45;4.00;;;16.60;93.30;;;;;;4985260;28;20023;-72
2023/04/18 12:52:54;;;;;;;6.82;4.30;;;16.70;92.90;;;;;;4982885;28;20309;-74
2023/04/18 12:55:24;;;;;;;5.97;4.00;;;16.70;92.80;;;;;;4985688;28;20050;-70
2023/04/18 12:57:53;;;;;;;6.50;4.45;;;16.70;92.60;;;;;;4977877;28;20189;-71
2023/04/18 13:00:20;;;;;;;5.82;4.10;;;16.90;92.50;;;;;;4985313;28;20043;-70
2023/04/18 13:02:46;;;;;;;7.10;3.92;;;17.10;91.90;;;;;;4984742;28;20077;-72
2023/04/18 13:05:13;;;;;;;6.38;3.97;;;17.20;91.90;;;;;;4984799;28;20173;-71
2023/04/18 13:07:41;;;;;;;7.00;4.10;;;17.50;91.90;;;;;;4984527;28;20023;-72
2023/04/18 13:10:11;;;;;;;8.52;3.80;;;17.80;91.70;;;;;;4984916;28;20038;-73
2023/04/18 13:12:41;;;;;;;8.10;3.88;;;17.70;91.40;;;;;;4970085;28;20210;-71
2023/04/18 13:15:08;;;;;;;6.82;4.07;;;17.70;91.50;;;;;;4985245;28;20043;-71
2023/04/18 13:17:37;;;;;;;7.07;3.75;;;17.70;91.50;;;;;;4984571;28;20042;-71
2023/04/18 13:20:09;;;;;;;4.88;3.38;;;17.60;91.30;;;;;;4985120;28;20105;-75
2023/04/18 13:22:36;;;;;;;4.75;3.40;;;17.20;91.50;;;;;;4969857;28;20313;-73
2023/04/18 13:25:02;;;;;;;5.93;3.33;;;17.30;91.20;;;;;;4983342;28;20047;-71
2023/04/18 13:27:28;;;;;;;4.60;2.92;;;17.20;91.80;;;;;;4984547;28;20135;-71
2023/04/18 13:29:55;;;;;;;7.40;3.50;;;17.10;91.70;;;;;;4984073;28;20054;-72
2023/04/18 13:32:20;;;;;;;5.40;3.00;;;17.10;91.40;;;;;;4982863;28;20039;-73
2023/04/18 13:34:47;;;;;;;4.03;3.05;;;17.20;91.50;;;;;;4984085;28;20042;-73
2023/04/18 13:37:16;;;;;;;5.05;3.08;;;17.00;91.10;;;;;;4984393;28;20255;-70
2023/04/18 13:39:41;;;;;;;5.47;3.38;;;17.10;91.20;;;;;;4984157;28;20035;-75
2023/04/18 13:42:08;;;;;;;4.55;3.00;;;17.30;90.80;;;;;;4984600;28;20073;-71
2023/04/18 13:44:34;;;;;;;5.70;3.45;;;17.40;90.60;;;;;;4984396;28;20324;-73
2023/04/18 13:47:01;;;;;;;4.55;3.20;;;17.40;90.50;;;;;;4983938;28;20082;-72
2023/04/18 13:49:27;;;;;;;5.25;3.08;;;17.40;90.40;;;;;;4978474;28;20027;-71
2023/04/18 13:51:56;;;;;;;6.90;3.70;;;17.40;90.50;;;;;;4975833;28;20058;-71
2023/04/18 13:54:22;;;;;;;4.85;3.22;;;17.30;90.30;;;;;;4992450;28;20057;-73
2023/04/18 13:56:48;;;;;;;4.18;2.97;;;17.40;91.30;;;;;;4983005;28;20126;-74
2023/04/18 13:59:14;;;;;;;4.63;3.03;;;17.20;90.10;;;;;;5003885;28;20049;-71
2023/04/18 14:01:40;;;;;;;5.50;3.40;;;17.00;90.60;;;;;;5002677;28;20251;-71
2023/04/18 14:04:05;;;;;;;5.70;3.75;;;16.80;91.00;;;;;;5003744;28;20030;-72
2023/04/18 14:06:31;;;;;;;3.97;2.95;;;16.70;91.20;;;;;;5003653;28;20046;-72
2023/04/18 14:08:58;;;;;;;4.93;3.40;;;16.40;91.30;;;;;;5002738;28;20080;-71
2023/04/18 14:11:24;;;;;;;6.93;3.65;;;16.20;91.60;;;;;;4995388;28;20046;-72
2023/04/18 14:13:49;;;;;;;4.57;3.22;;;16.00;91.80;;;;;;5003084;28;20037;-72
2023/04/18 14:16:18;;;;;;;4.82;3.20;;;16.00;92.40;;;;;;5003556;28;20089;-71
2023/04/18 14:19:11;;;;;;;5.70;3.58;;;16.10;92.20;;;;;;4980254;28;20035;-73
2023/04/18 14:21:36;;;;;;;6.57;3.55;;;16.10;91.60;;;;;;4996906;28;20054;-75
2023/04/18 14:24:03;;;;;;;5.07;3.30;;;16.10;91.70;;;;;;5000724;28;20223;-72
2023/04/18 14:26:29;;;;;;;5.78;3.42;;;16.20;91.90;;;;;;4995760;28;20065;-70
2023/04/18 14:28:55;;;;;;;7.22;3.90;;;16.20;91.50;;;;;;5002764;28;20093;-70
2023/04/18 14:31:21;;;;;;;5.55;3.15;;;16.40;91.60;;;;;;4995571;28;20065;-72
2023/04/18 14:33:47;;;;;;;4.70;3.30;;;16.50;91.40;;;;;;4997564;28;20045;-71
2023/04/18 14:36:14;;;;;;;5.97;3.92;;;16.60;91.20;;;;;;5003317;28;20015;-72
2023/04/18 14:38:40;;;;;;;5.68;3.50;;;16.50;90.80;;;;;;5002440;28;20034;-70
2023/04/18 14:41:06;;;;;;;5.35;3.13;;;16.40;91.10;;;;;;5003087;28;20066;-71
2023/04/18 14:43:32;;;;;;;5.28;3.70;;;16.40;91.70;;;;;;5002101;28;20220;-70
2023/04/18 14:45:58;;;;;;;5.50;3.45;;;16.40;91.00;;;;;;5002671;28;20227;-75
2023/04/18 14:48:23;;;;;;;4.55;3.10;;;16.50;91.50;;;;;;5003048;28;20046;-72
2023/04/18 14:50:56;;;;;;;4.82;3.53;;;16.50;90.80;;;;;;5002536;28;20037;-72
2023/04/18 14:53:23;;;;;;;4.53;3.08;;;16.60;90.90;;;;;;5000757;28;20308;-72
2023/04/18 14:55:48;;;;;;;5.03;3.30;;;16.60;91.10;;;;;;4997679;28;20068;-71
2023/04/18 14:58:14;;;;;;;5.28;3.28;;;16.70;90.60;;;;;;4998028;28;20038;-73
2023/04/18 15:00:40;;;;;;;4.55;3.20;;;16.70;90.60;;;;;;5001209;28;20042;-71
2023/04/18 15:03:06;;;;;;;7.05;3.40;;;16.70;90.40;;;;;;5002663;28;20097;-70
2023/04/18 15:05:33;;;;;;;4.38;3.10;;;16.60;90.30;;;;;;5001850;28;20041;-71
2023/04/18 15:08:00;;;;;;;4.07;3.00;;;16.50;90.50;;;;;;5002570;28;20248;-70
2023/04/18 15:10:25;;;;;;;5.18;3.05;;;16.50;90.60;;;;;;4991630;28;20027;-71
2023/04/18 15:12:51;;;;;;;3.75;2.60;;;16.40;90.20;;;;;;5000159;28;20034;-71
2023/04/18 15:15:18;;;;;;;3.83;2.80;;;16.50;90.50;;;;;;5003076;28;20041;-70
2023/04/18 15:17:43;;;;;;;5.15;2.67;;;16.50;90.60;;;;;;4994249;28;20026;-70
2023/04/18 15:20:09;;;;;;;3.70;2.45;;;16.60;90.70;;;;;;5002850;28;20037;-71
2023/04/18 15:22:35;;;;;;;4.43;3.05;;;16.70;90.80;;;;;;5003147;28;20022;-72
2023/04/18 15:25:03;;;;;;;6.25;3.13;;;16.80;90.70;;;;;;5000865;28;20141;-71
2023/04/18 15:27:29;;;;;;;5.03;2.95;;;16.80;90.20;;;;;;5002842;28;20045;-71
2023/04/18 15:29:55;;;;;;;4.70;2.85;;;16.70;91.20;;;;;;5002070;28;20030;-72
2023/04/18 15:32:21;;;;;;;3.88;2.50;;;16.70;91.00;;;;;;5000910;28;20109;-72
2023/04/18 15:34:47;;;;;;;4.20;2.72;;;16.70;90.70;;;;;;5002419;28;20038;-71
2023/04/18 15:37:13;;;;;;;4.15;2.92;;;16.60;90.70;;;;;;5006468;28;20188;-73
2023/04/18 15:39:39;;;;;;;3.95;2.55;;;16.50;90.90;;;;;;5005821;28;20038;-72
2023/04/18 15:42:05;;;;;;;4.32;2.60;;;16.50;91.00;;;;;;5006906;28;20038;-73
2023/04/18 15:44:31;;;;;;;4.15;2.60;;;16.40;90.70;;;;;;5006617;28;20276;-72
2023/04/18 15:46:59;;;;;;;5.97;2.55;;;16.20;90.70;;;;;;5005733;28;20045;-73
2023/04/18 15:49:25;;;;;;;3.58;2.33;;;16.00;90.80;;;;;;5006440;28;20324;-73
2023/04/18 15:51:50;;;;;;;5.72;2.63;;;15.90;91.00;;;;;;5005186;28;20069;-75
2023/04/18 15:54:16;;;;;;;5.15;2.70;;;15.70;91.60;;;;;;4994773;28;20038;-71
2023/04/18 15:56:43;;;;;;;5.22;3.30;;;15.60;91.90;;;;;;5000458;28;20090;-73
2023/04/18 15:59:09;;;;;;;4.22;2.58;;;15.40;92.00;;;;;;5006255;28;20042;-73
2023/04/18 16:01:36;;;;;;;5.47;3.55;;;15.30;92.20;;;;;;4991866;28;20205;-73
2023/04/18 16:04:01;;;;;;;5.80;3.45;;;15.20;92.60;;;;;;4992437;28;20098;-73
2023/04/18 16:06:30;;;;;;;4.55;3.42;;;15.10;92.90;;;;;;5006282;28;20276;-72
2023/04/18 16:08:56;;;;;;;5.70;4.05;;;15.10;93.10;;;;;;5005383;28;20342;-71
2023/04/18 16:11:24;;;;;;;5.70;3.63;;;15.10;93.40;;;;;;4999656;28;20042;-74
2023/04/18 16:13:51;;;;;;;7.40;4.25;;;15.00;93.30;;;;;;5005560;28;20114;-74
2023/04/18 16:16:16;;;;;;;5.63;4.03;;;15.10;93.40;;;;;;5005935;28;20392;-72
2023/04/18 16:18:42;;;;;;;5.10;3.63;;;15.00;93.30;;;;;;5003764;28;20042;-75
2023/04/18 16:21:11;;;;;;;6.65;4.13;;;15.00;93.60;;;;;;5006271;28;20040;-72
2023/04/18 16:23:36;;;;;;;6.13;3.85;;;15.00;93.60;;;;;;5006056;28;20040;-72
2023/04/18 16:26:02;;;;;;;5.85;3.78;;;15.00;93.60;;;;;;4998104;28;20212;-73
2023/04/18 16:28:29;;;;;;;4.47;3.47;;;15.00;93.60;;;;;;5005630;28;20320;-73
2023/04/18 16:30:55;;;;;;;6.28;3.78;;;14.90;93.80;;;;;;5001210;28;20094;-72
2023/04/18 16:33:24;;;;;;;8.40;4.18;;;14.80;93.70;;;;;;4997052;28;20045;-73
2023/04/18 16:35:50;;;;;;;6.78;4.57;;;14.70;93.70;;;;;;5004949;28;20114;-75
2023/04/18 16:38:16;;;;;;;5.30;4.05;;;14.70;93.70;;;;;;4994907;28;20027;-75
2023/04/18 16:40:42;;;;;;;5.53;3.90;;;14.70;94.00;;;;;;5002030;28;20236;-74
2023/04/18 16:43:08;;;;;;;5.97;3.97;;;14.60;94.10;;;;;;5005540;28;20085;-72
2023/04/18 16:45:33;;;;;;;6.53;4.18;;;14.70;94.30;;;;;;5005591;28;20022;-73
2023/04/18 16:47:59;;;;;;;6.35;4.07;;;14.60;94.60;;;;;;5004432;28;20041;-73
2023/04/18 16:50:25;;;;;;;5.93;4.22;;;14.60;94.30;;;;;;5005437;28;20034;-74
2023/04/18 16:52:50;;;;;;;6.78;4.15;;;14.60;94.60;;;;;;5004878;28;20027;-74
2023/04/18 16:55:16;;;;;;;5.75;4.15;;;14.50;94.80;;;;;;4995666;28;20015;-73
2023/04/18 16:57:42;;;;;;;5.72;4.32;;;14.50;94.80;;;;;;5004983;28;20061;-73
2023/04/18 17:00:09;;;;;;;6.72;4.32;;;14.40;95.00;;;;;;5004906;28;20064;-73
2023/04/18 17:02:34;;;;;;;6.75;4.53;;;14.40;95.30;;;;;;5003911;28;20062;-72
2023/04/18 17:05:00;;;;;;;7.40;4.75;;;14.30;95.10;;;;;;5004607;28;20325;-72
2023/04/18 17:07:26;;;;;;;6.00;4.50;;;14.30;95.30;;;;;;5004980;28;20030;-73
2023/04/18 17:09:52;;;;;;;6.82;4.50;;;14.30;95.30;;;;;;4997881;28;20034;-71
2023/04/18 17:12:17;;;;;;;8.50;4.78;;;14.20;95.40;;;;;;5001830;28;20366;-71
2023/04/18 17:14:43;;;;;;;6.47;4.70;;;14.20;95.60;;;;;;5004820;28;20210;-73
2023/04/18 17:17:09;;;;;;;6.10;4.25;;;14.20;95.60;;;;;;5000207;28;20196;-72
2023/04/18 17:19:35;;;;;;;6.45;4.43;;;14.10;95.70;;;;;;5005240;28;20267;-73
2023/04/18 17:22:01;;;;;;;7.10;4.65;;;14.20;95.80;;;;;;5003986;28;20394;-72
2023/04/18 17:24:27;;;;;;;6.88;4.18;;;14.10;95.90;;;;;;4999153;28;20090;-75
2023/04/18 17:26:52;;;;;;;6.43;4.07;;;14.10;96.00;;;;;;4998067;28;20097;-74
2023/04/18 17:29:18;;;;;;;6.63;4.57;;;14.10;95.90;;;;;;5004396;28;20076;-75
2023/04/18 17:31:44;;;;;;;5.45;3.95;;;14.10;95.90;;;;;;4989387;28;20038;-74
2023/04/18 17:34:10;;;;;;;6.80;4.68;;;14.10;96.20;;;;;;5004459;28;20037;-75
2023/04/18 17:36:35;;;;;;;6.18;4.50;;;14.10;96.10;;;;;;5004501;28;20034;-74
2023/04/18 17:39:05;;;;;;;7.80;4.38;;;14.00;96.10;;;;;;5003676;28;20698;-73
2023/04/18 17:41:35;;;;;;;6.15;4.30;;;14.00;96.30;;;;;;5004351;28;20093;-74
2023/04/18 17:44:01;;;;;;;7.30;5.53;;;14.00;96.30;;;;;;5004319;28;20038;-74
2023/04/18 17:46:26;;;;;;;6.50;4.55;;;13.90;96.40;;;;;;5004537;28;20024;-74